In Rescue
 
Open Full Screen Window  High Contrast Mode
Wind Gusting 00 knots
11
March 19, 2019 6:13 PM CDT
Weather Information
Wind Direction
  190 °
Wind Speed
  11 kt (13 mph)
Wind Gust
  00 kt (0 mph)
Altimeter
29.98 in
Visibility
10 SM
Temperature
02° C
36° F
Dewpoint
00° C
32° F
Humidity
87%
1hr Rain Fall
00.00 in.
24hr Rain Fall
00.00 in.
Sky Condition
Overcast @ 10,000 ft
VFR

METAR KHCO 192313Z AUTO 19011KT 10SM OVC100 02/00 A2998 RMK AO2

FAA Disclaimer: The data displayed is for advisory purposes only and is not to be used for flight planning or operations.